Terminal Aerodrome Forecast
Issued by NWS

Home | Current Version | Previous Version | Graphics & Text | Print | Product List | Glossary On
Versions: 1 2 3 4 5 6 7 8 9 10 11 12 13 14 15 16
156
FTUS45 KRIW 241122
TAFBPI
TAF
KBPI 241122Z 2412/2512 VRB06KT P6SM SCT080
     FM241700 VRB11G22KT P6SM VCTS SCT035 SCT050CB BKN080
     FM250200 03007KT P6SM VCSH SCT050 BKN080
     FM250400 VRB04KT P6SM SCT050=

USA.gov is the U.S. government's official web portal to all federal, state and local government web resources and services.